Eleanor, Illinois
Current Conditions -  °F | °C
As of 12:15 AM on Monday 26 Jan 2015 (Local Time) from KGBG Reporting Station
Clear Clear  
Wind Chill: 11°   Ceiling: Unl
Heat Index: 20°   Visibility: 10mi
Dew Point: 17°   Wind: 7mph
Humidity: 86%   Direction: 350°N
Pressure: 30.04"   Gusts: NA
Location:  41.0248°N, 90.7263°W
Report Text: KGBG 260615Z AUTO 35006KT 10SM CLR M06/M08 A3004 RMK AO2 T10651085
Loading
Personal Weather Stations






























Interactive Weather Map New forecast layout! Learn more

10-Day Weather Forecast

Advertisements
Track Severe Weather on mobile